Latest Coastal Weather Observations for Maria Island

IDT60701

Issued at 12:32 pm EST Thursday 27 July 2017 (issued every 10 minutes, with the page automatically refreshed every 10 minutes)

About coastal observations | Map of coastal stations | Coastal observations for TAS | Marine services | Other Formats
Station Details ID: 092124 Name: MARIA ISLAND (POINT LESUEUR) Lat: -42.66 Lon: 148.02 Height: 28.0 m
Data from the previous 72 hours. | See also: Recent months at Maria Island
Date/Time
EST
Temp
°C
Wind Pressure Rain since
9am
mm
Weather Cloud Vis
km
Sea
Height
m
Swell
Dir  Spd
kts
Gust
kts
hPa Trend Height
m
Period
s
Dir
27/12:30pm 9.5 N 14 17 1015.4 - 0.0 - - - - - - -
27/12:00pm 9.4 N 13 17 1015.9 - 0.0 - - - - - - -
27/11:30am 9.9 NNW 10 16 1017.0 - 0.0 - - - - - - -
27/11:00am 9.2 N 13 15 1017.7 - 0.0 - - - - - - -
27/10:30am 7.9 NNW 8 9 1018.4 - 0.0 - - - - - - -
27/10:00am 7.1 NNW 9 11 1018.9 - 0.0 - - - - - - -
27/09:30am 6.7 NNW 11 13 1019.1 - 0.0 - - - - - - -
27/09:00am 6.6 N 10 11 1018.8 - 0.0 - - - - - - -
27/08:30am 6.2 CALM 0 1 1018.8 - 0.0 - - - - - - -
27/08:00am 5.3 NW 3 6 1019.3 - 0.0 - - - - - - -
27/07:30am 5.1 NW 8 11 1019.3 - 0.0 - - - - - - -
27/07:00am 6.0 N 9 13 1018.8 - 0.0 - - - - - - -
27/06:30am 5.5 N 10 13 1018.7 - 0.0 - - - - - - -
27/06:00am 5.5 NNW 9 11 1018.5 - 0.0 - - - - - - -
27/05:30am 4.9 NW 6 8 1018.5 - 0.0 - - - - - - -
27/05:00am 5.2 WNW 8 11 1018.7 - 0.0 - - - - - - -
27/04:30am 5.8 WNW 11 13 1018.6 - 0.0 - - - - - - -
27/04:00am 5.9 NW 11 13 1018.6 - 0.0 - - - - - - -
27/03:30am 6.0 N 8 10 1019.0 - 0.0 - - - - - - -
27/03:00am 5.8 NW 8 13 1019.0 - 0.0 - - - - - - -
27/02:30am 6.0 NW 12 15 1019.0 - 0.0 - - - - - - -
27/02:00am 5.3 NW 12 14 1018.9 - 0.0 - - - - - - -
27/01:30am 5.3 NW 7 9 1019.1 - 0.0 - - - - - - -
27/01:00am 5.5 WNW 12 14 1018.8 - 0.0 - - - - - - -
27/12:30am 5.7 WNW 11 13 1018.7 - 0.0 - - - - - - -
27/12:00am 6.1 WNW 12 15 1018.7 - 0.0 - - - - - - -
 
Date/Time
EST
Temp
°C
Wind Pressure Rain since
9am
mm
Weather Cloud Vis
km
Sea
Height
m
Swell
Dir  Spd
kts
Gust
kts
hPa Trend Height
m
Period
s
Dir
26/11:30pm 6.0 WNW 11 13 1018.6 - 0.0 - - - - - - -
26/11:00pm 6.1 WNW 11 13 1018.4 - 0.0 - - - - - - -
26/10:30pm 6.1 WNW 8 10 1018.3 - 0.0 - - - - - - -
26/10:00pm 6.5 W 10 12 1018.1 - 0.0 - - - - - - -
26/09:30pm 6.2 WNW 8 9 1017.9 - 0.0 - - - - - - -
26/09:00pm 6.6 WNW 11 13 1017.8 - 0.0 - - - - - - -
26/08:30pm 7.0 W 8 9 1017.5 - 0.0 - - - - - - -
26/08:00pm 7.0 WSW 8 9 1017.2 - 0.0 - - - - - - -
26/07:30pm 7.6 WSW 11 13 1016.9 - 0.0 - - - - - - -
26/07:00pm 7.5 WSW 9 10 1016.5 - 0.0 - - - - - - -
26/06:30pm 7.8 SW 14 17 1015.9 - 0.0 - - - - - - -
26/06:00pm 7.8 SW 16 20 1015.5 - 0.0 - - - - - - -
26/05:30pm 8.1 SW 12 16 1015.1 - 0.0 - - - - - - -
26/05:00pm 8.2 SW 16 20 1014.8 - 0.0 - - - - - - -
26/04:30pm 8.1 SW 16 20 1014.5 - 0.0 - - - - - - -
26/04:00pm 8.8 SW 17 21 1013.6 - 0.0 - - - - - - -
26/03:30pm 8.8 SW 18 21 1013.4 - 0.0 - - - - - - -
26/03:00pm 9.0 SW 15 20 1012.8 - 0.0 - - - - - - -
26/02:30pm 8.9 SW 19 24 1012.3 - 0.0 - - - - - - -
26/02:00pm 8.6 SSW 22 29 1011.8 - 0.0 - - - - - - -
26/01:30pm 9.5 SW 21 25 1011.3 - 0.0 - - - - - - -
26/01:00pm 8.9 SSW 21 25 1011.0 - 0.0 - - - - - - -
26/12:30pm 8.8 SW 24 30 1010.7 - 0.0 - - - - - - -
26/12:00pm 8.7 SW 23 28 1010.6 - 0.0 - - - - - - -
26/11:30am 8.7 SW 23 29 1010.3 - 0.0 - - - - - - -
26/11:00am 8.0 SSW 25 33 1009.7 - 0.0 - - - - - - -
26/10:30am 8.8 SSW 23 27 1009.4 - 0.0 - - - - - - -
26/10:25am 8.8 SSW 26 36 1009.3 - 0.0 - - - - - - -
26/10:00am 9.0 SSW 30 36 1008.6 - 0.0 - - - - - - -
26/09:30am 8.6 SSW 25 28 1008.1 - 0.0 - - - - - - -
26/09:00am 8.7 S 25 28 1007.2 - 1.2 - - - - - - -
26/08:30am 8.8 SSW 24 27 1006.6 - 1.2 - - - - - - -
26/08:00am 8.3 SSW 25 29 1005.8 - 1.2 - - - - - - -
26/07:30am 8.6 SSW 26 31 1004.9 - 1.2 - - - - - - -
26/07:00am 8.6 SSW 28 36 1003.6 - 1.2 - - - - - - -
26/06:30am 8.4 SW 22 30 1002.7 - 0.6 - - - - - - -
26/06:00am 7.7 SW 20 25 1002.3 - 0.2 Rain - - - - - -
26/05:30am 8.5 SW 19 23 1001.7 - 0.0 - - - - - - -
26/05:00am 9.0 SW 14 18 1001.0 - 0.0 - - - - - - -
26/04:39am 9.2 SSW 9 19 1000.6 - 0.0 - - - - - - -
26/04:30am 9.2 SW 4 7 1000.6 - 0.0 - - - - - - -
26/04:00am 8.9 SW 2 3 1000.3 - 0.0 - - - - - - -
26/03:30am 9.3 NNW 8 9 1000.0 - 0.0 - - - - - - -
26/03:00am 9.4 NW 7 8 1000.5 - 0.0 - - - - - - -
26/02:30am 9.8 NW 8 11 1000.3 - 0.0 - - - - - - -
26/02:00am 10.1 NW 8 11 1000.4 - 0.0 - - - - - - -
26/01:30am 10.2 NNW 10 12 1000.4 - 0.0 - - - - - - -
26/01:00am 10.1 NW 13 14 1000.7 - 0.0 - - - - - - -
26/12:30am 10.3 NNW 15 17 1000.9 - 0.0 - - - - - - -
26/12:00am 10.5 NW 13 16 1001.2 - 0.0 - - - - - - -
 
Date/Time
EST
Temp
°C
Wind Pressure Rain since
9am
mm
Weather Cloud Vis
km
Sea
Height
m
Swell
Dir  Spd
kts
Gust
kts
hPa Trend Height
m
Period
s
Dir
25/11:30pm 10.5 NW 13 15 1001.2 - 0.0 - - - - - - -
25/11:00pm 10.7 NNW 13 15 1001.4 - 0.0 - - - - - - -
25/10:30pm 10.9 NNW 12 14 1001.5 - 0.0 - - - - - - -
25/10:00pm 10.9 NNW 12 14 1001.7 - 0.0 - - - - - - -
25/09:30pm 11.2 NW 16 19 1001.9 - 0.0 - - - - - - -
25/09:00pm 11.2 NW 15 20 1002.1 - 0.0 - - - - - - -
25/08:30pm 11.6 NNW 14 17 1002.2 - 0.0 - - - - - - -
25/08:00pm 11.2 NNW 9 10 1002.3 - 0.0 - - - - - - -
25/07:30pm 11.5 NNW 12 13 1002.4 - 0.0 - - - - - - -
25/07:00pm 12.4 NNW 9 12 1002.3 - 0.0 - - - - - - -
25/06:30pm 12.1 NNW 5 7 1002.6 - 0.0 - - - - - - -
25/06:00pm 13.1 NW 3 4 1002.6 - 0.0 - - - - - - -
25/05:30pm 12.8 NW 3 4 1002.6 - 0.0 - - - - - - -
25/05:00pm 12.9 W 10 16 1002.6 - 0.0 - - - - - - -
25/04:30pm 13.6 WNW 14 19 1002.7 - 0.0 - - - - - - -
25/04:00pm 14.0 W 18 26 1002.4 - 0.0 - - - - - - -
25/03:30pm 14.7 WNW 18 24 1002.4 - 0.0 - - - - - - -
25/03:00pm 15.4 NW 12 16 1002.4 - 0.0 - - - - - - -
25/02:30pm 13.8 NNW 10 13 1002.7 - 0.0 - - - - - - -
25/02:00pm 13.6 N 10 15 1002.8 - 0.0 - - - - - - -
25/01:30pm 13.4 N 11 13 1003.1 - 0.0 - - - - - - -
25/01:00pm 12.8 N 14 16 1003.4 - 0.0 - - - - - - -
25/12:30pm 13.6 N 10 13 1003.8 - 0.0 - - - - - - -
25/12:00pm 13.0 N 9 13 1004.7 - 0.0 - - - - - - -
25/11:30am 12.4 N 11 15 1005.3 - 0.0 - - - - - - -
25/11:00am 10.8 N 9 12 1006.0 - 0.0 - - - - - - -
25/10:30am 10.6 N 14 16 1006.4 - 0.0 - - - - - - -
25/10:00am 10.3 N 14 16 1006.7 - 0.0 - - - - - - -
25/09:30am 9.7 N 11 13 1007.0 - 0.0 - - - - - - -
25/09:00am 9.3 N 12 13 1007.3 - 0.0 - - - - - - -
25/08:30am 9.2 N 15 18 1007.3 - 0.0 - - - - - - -
25/08:00am 8.6 N 17 20 1007.4 - 0.0 - - - - - - -
25/07:30am 7.8 NNW 12 15 1008.1 - 0.0 - - - - - - -
25/07:00am 7.8 N 14 16 1008.4 - 0.0 - - - - - - -
25/06:30am 7.8 NNW 10 12 1008.9 - 0.0 - - - - - - -
25/06:00am 7.5 NNW 8 10 1009.0 - 0.0 - - - - - - -
25/05:30am 7.4 NNW 10 12 1009.3 - 0.0 - - - - - - -
25/05:00am 7.7 NNW 16 18 1009.2 - 0.0 - - - - - - -
25/04:30am 8.8 NW 18 20 1009.3 - 0.0 - - - - - - -
25/04:22am 8.6 NW 17 20 1009.1 - 0.0 - - - - - - -
25/04:00am 7.3 WNW 8 10 1009.8 - 0.0 - - - - - - -
25/03:30am 7.9 WNW 4 8 1010.3 - 0.0 - - - - - - -
25/03:00am 7.9 WNW 5 6 1010.8 - 0.0 - - - - - - -
25/02:30am 8.3 NW 9 11 1010.8 - 0.0 - - - - - - -
25/02:00am 8.2 NW 12 15 1010.7 - 0.0 - - - - - - -
25/01:30am 8.3 NW 10 15 1010.6 - 0.0 - - - - - - -
25/01:00am 7.9 NW 5 8 1011.0 - 0.0 - - - - - - -
25/12:30am 8.1 NW 9 13 1011.3 - 0.0 - - - - - - -
25/12:00am 7.7 NW 7 10 1011.3 - 0.0 - - - - - - -
 
Date/Time
EST
Temp
°C
Wind Pressure Rain since
9am
mm
Weather Cloud Vis
km
Sea
Height
m
Swell
Dir  Spd
kts
Gust
kts
hPa Trend Height
m
Period
s
Dir
24/11:30pm 7.4 NW 7 10 1011.5 - 0.0 - - - - - - -
24/11:00pm 7.9 NNW 8 10 1011.5 - 0.0 - - - - - - -
24/10:30pm 7.8 NNW 10 13 1011.3 - 0.0 - - - - - - -
24/10:00pm 8.0 NW 7 10 1011.5 - 0.0 - - - - - - -
24/09:30pm 8.2 NW 7 10 1011.5 - 0.0 - - - - - - -
24/09:00pm 8.2 NW 8 11 1011.7 - 0.0 - - - - - - -
24/08:30pm 8.6 NW 9 11 1011.5 - 0.0 - - - - - - -
24/08:00pm 9.2 NNW 9 13 1011.4 - 0.0 - - - - - - -
24/07:30pm 8.7 NW 7 12 1011.5 - 0.0 - - - - - - -
24/07:00pm 8.8 WNW 9 13 1011.4 - 0.0 - - - - - - -
24/06:30pm 8.9 WNW 8 11 1011.2 - 0.0 - - - - - - -
24/06:00pm 9.3 WNW 11 15 1011.1 - 0.0 - - - - - - -
24/05:30pm 9.5 WNW 10 16 1010.9 - 0.0 - - - - - - -
24/05:00pm 10.0 WNW 12 19 1010.6 - 0.0 - - - - - - -
24/04:30pm 10.6 W 13 18 1010.3 - 0.0 - - - - - - -
24/04:00pm 11.1 WNW 15 21 1009.9 - 0.0 - - - - - - -
24/03:30pm 11.3 W 15 20 1009.8 - 0.0 - - - - - - -
24/03:00pm 11.6 W 12 16 1009.9 - 0.0 - - - - - - -
24/02:30pm 11.6 W 11 16 1009.7 - 0.0 - - - - - - -
24/02:00pm 11.4 W 16 25 1009.9 - 0.0 - - - - - - -
24/01:30pm 11.5 W 13 19 1010.1 - 0.0 - - - - - - -
24/01:00pm 11.3 W 14 20 1010.1 - 0.0 - - - - - - -

Other Formats:

Comma delimited format used in spreadsheet applications
http://www.bom.gov.au/fwo/IDT60701/IDT60701.95988.axf

JavaScript Object Notation format (JSON) in row-major order
http://www.bom.gov.au/fwo/IDT60701/IDT60701.95988.json